sensor_id;sensor_type;location;lat;lon;timestamp;pressure;altitude;pressure_sealevel;temperature;humidity
53868;BME280;41577;47.470;19.080;2023-11-21T00:00:08;99735.94;;;5.73;100.00
53868;BME280;41577;47.470;19.080;2023-11-21T00:00:23;99734.13;;;5.73;100.00
53868;BME280;41577;47.470;19.080;2023-11-21T00:00:35;99737.59;;;5.74;100.00
53868;BME280;41577;47.470;19.080;2023-11-21T00:00:47;99734.13;;;5.73;100.00
53868;BME280;41577;47.470;19.080;2023-11-21T00:00:59;99731.47;;;5.73;100.00
53868;BME280;41577;47.470;19.080;2023-11-21T00:01:10;99736.78;;;5.73;100.00
53868;BME280;41577;47.470;19.080;2023-11-21T00:01:22;99737.59;;;5.74;100.00
53868;BME280;41577;47.470;19.080;2023-11-21T00:01:34;99733.31;;;5.73;100.00
53868;BME280;41577;47.470;19.080;2023-11-21T00:01:46;99735.28;;;5.71;100.00
53868;BME280;41577;47.470;19.080;2023-11-21T00:01:58;99730.66;;;5.73;100.00
53868;BME280;41577;47.470;19.080;2023-11-21T00:02:10;99730.66;;;5.73;100.00
53868;BME280;41577;47.470;19.080;2023-11-21T00:02:22;99734.13;;;5.73;100.00
53868;BME280;41577;47.470;19.080;2023-11-21T00:02:34;99742.88;;;5.74;100.00
53868;BME280;41577;47.470;19.080;2023-11-21T00:02:46;99731.47;;;5.73;100.00
53868;BME280;41577;47.470;19.080;2023-11-21T00:02:58;99739.41;;;5.73;100.00
53868;BME280;41577;47.470;19.080;2023-11-21T00:03:10;99733.31;;;5.73;100.00
53868;BME280;41577;47.470;19.080;2023-11-21T00:03:22;99732.44;;;5.72;100.00
53868;BME280;41577;47.470;19.080;2023-11-21T00:03:34;99733.31;;;5.73;100.00
53868;BME280;41577;47.470;19.080;2023-11-21T00:03:46;99735.75;;;5.74;100.00
53868;BME280;41577;47.470;19.080;2023-11-21T00:03:58;99729.63;;;5.74;100.00
53868;BME280;41577;47.470;19.080;2023-11-21T00:04:10;99734.13;;;5.73;100.00
53868;BME280;41577;47.470;19.080;2023-11-21T00:04:21;99733.31;;;5.73;100.00
53868;BME280;41577;47.470;19.080;2023-11-21T00:04:33;99737.75;;;5.72;100.00
53868;BME280;41577;47.470;19.080;2023-11-21T00:04:45;99732.28;;;5.74;100.00
53868;BME280;41577;47.470;19.080;2023-11-21T00:04:57;99732.44;;;5.72;100.00
53868;BME280;41577;47.470;19.080;2023-11-21T00:05:09;99726.16;;;5.73;100.00
53868;BME280;41577;47.470;19.080;2023-11-21T00:05:21;99738.59;;;5.73;100.00
53868;BME280;41577;47.470;19.080;2023-11-21T00:05:33;99728.97;;;5.72;100.00
53868;BME280;41577;47.470;19.080;2023-11-21T00:05:45;99736.78;;;5.73;100.00
53868;BME280;41577;47.470;19.080;2023-11-21T00:05:57;99733.31;;;5.73;100.00
53868;BME280;41577;47.470;19.080;2023-11-21T00:06:09;99734.94;;;5.74;100.00
53868;BME280;41577;47.470;19.080;2023-11-21T00:06:21;99736.09;;;5.71;100.00
53868;BME280;41577;47.470;19.080;2023-11-21T00:06:33;99727.81;;;5.74;100.00
53868;BME280;41577;47.470;19.080;2023-11-21T00:06:45;99733.31;;;5.73;100.00
53868;BME280;41577;47.470;19.080;2023-11-21T00:06:57;99731.47;;;5.73;100.00
53868;BME280;41577;47.470;19.080;2023-11-21T00:07:08;99728.00;;;5.73;100.00
53868;BME280;41577;47.470;19.080;2023-11-21T00:07:20;99734.28;;;5.72;100.00
53868;BME280;41577;47.470;19.080;2023-11-21T00:07:32;99729.81;;;5.72;100.00
53868;BME280;41577;47.470;19.080;2023-11-21T00:07:44;99728.00;;;5.73;100.00
53868;BME280;41577;47.470;19.080;2023-11-21T00:07:56;99723.69;;;5.72;100.00
53868;BME280;41577;47.470;19.080;2023-11-21T00:08:08;99729.81;;;5.72;100.00
53868;BME280;41577;47.470;19.080;2023-11-21T00:08:20;99726.34;;;5.72;100.00
53868;BME280;41577;47.470;19.080;2023-11-21T00:08:32;99719.22;;;5.72;100.00
53868;BME280;41577;47.470;19.080;2023-11-21T00:08:43;99725.50;;;5.71;100.00
53868;BME280;41577;47.470;19.080;2023-11-21T00:08:55;99729.81;;;5.72;100.00
53868;BME280;41577;47.470;19.080;2023-11-21T00:09:07;99720.06;;;5.73;100.00
53868;BME280;41577;47.470;19.080;2023-11-21T00:09:19;99718.38;;;5.72;100.00
53868;BME280;41577;47.470;19.080;2023-11-21T00:09:30;99725.34;;;5.73;100.00
53868;BME280;41577;47.470;19.080;2023-11-21T00:09:42;99725.34;;;5.73;100.00
53868;BME280;41577;47.470;19.080;2023-11-21T00:09:54;99728.00;;;5.73;100.00
53868;BME280;41577;47.470;19.080;2023-11-21T00:10:07;99717.41;;;5.73;100.00
53868;BME280;41577;47.470;19.080;2023-11-21T00:10:19;99713.91;;;5.72;100.00
53868;BME280;41577;47.470;19.080;2023-11-21T00:10:31;99723.69;;;5.72;100.00
53868;BME280;41577;47.470;19.080;2023-11-21T00:10:43;99718.22;;;5.73;100.00
53868;BME280;41577;47.470;19.080;2023-11-21T00:10:55;99726.34;;;5.72;100.00
53868;BME280;41577;47.470;19.080;2023-11-21T00:11:07;99718.22;;;5.73;100.00
53868;BME280;41577;47.470;19.080;2023-11-21T00:11:18;99720.06;;;5.73;100.00
53868;BME280;41577;47.470;19.080;2023-11-21T00:11:30;99718.22;;;5.73;100.00
53868;BME280;41577;47.470;19.080;2023-11-21T00:11:42;99714.75;;;5.73;100.00
53868;BME280;41577;47.470;19.080;2023-11-21T00:11:55;99713.91;;;5.72;100.00
53868;BME280;41577;47.470;19.080;2023-11-21T00:12:07;99717.41;;;5.73;100.00
53868;BME280;41577;47.470;19.080;2023-11-21T00:12:19;99722.69;;;5.73;100.00
53868;BME280;41577;47.470;19.080;2023-11-21T00:12:31;99716.41;;;5.74;100.00
53868;BME280;41577;47.470;19.080;2023-11-21T00:12:43;99709.63;;;5.71;100.00
53868;BME280;41577;47.470;19.080;2023-11-21T00:12:55;99719.03;;;5.74;100.00
53868;BME280;41577;47.470;19.080;2023-11-21T00:13:07;99711.25;;;5.72;100.00
53868;BME280;41577;47.470;19.080;2023-11-21T00:13:19;99718.22;;;5.73;100.00
53868;BME280;41577;47.470;19.080;2023-11-21T00:13:30;99713.25;;;5.70;100.00
53868;BME280;41577;47.470;19.080;2023-11-21T00:13:43;99717.41;;;5.73;100.00
53868;BME280;41577;47.470;19.080;2023-11-21T00:13:54;99710.44;;;5.72;100.00
53868;BME280;41577;47.470;19.080;2023-11-21T00:14:06;99713.91;;;5.72;100.00
53868;BME280;41577;47.470;19.080;2023-11-21T00:14:18;99719.22;;;5.72;100.00
53868;BME280;41577;47.470;19.080;2023-11-21T00:14:30;99717.41;;;5.73;100.00
53868;BME280;41577;47.470;19.080;2023-11-21T00:14:42;99713.91;;;5.72;100.00
53868;BME280;41577;47.470;19.080;2023-11-21T00:14:54;99715.75;;;5.72;100.00
53868;BME280;41577;47.470;19.080;2023-11-21T00:15:10;99719.41;;;5.71;100.00
53868;BME280;41577;47.470;19.080;2023-11-21T00:15:22;99714.91;;;5.71;100.00
53868;BME280;41577;47.470;19.080;2023-11-21T00:15:33;99718.38;;;5.72;100.00
53868;BME280;41577;47.470;19.080;2023-11-21T00:15:45;99724.50;;;5.72;100.00
53868;BME280;41577;47.470;19.080;2023-11-21T00:15:57;99713.09;;;5.72;100.00
53868;BME280;41577;47.470;19.080;2023-11-21T00:16:09;99718.38;;;5.72;100.00
53868;BME280;41577;47.470;19.080;2023-11-21T00:16:21;99723.69;;;5.72;100.00
53868;BME280;41577;47.470;19.080;2023-11-21T00:16:33;99717.56;;;5.71;100.00
53868;BME280;41577;47.470;19.080;2023-11-21T00:16:45;99714.91;;;5.71;100.00
53868;BME280;41577;47.470;19.080;2023-11-21T00:16:59;99717.41;;;5.73;100.00
53868;BME280;41577;47.470;19.080;2023-11-21T00:17:11;99718.38;;;5.72;100.00
53868;BME280;41577;47.470;19.080;2023-11-21T00:17:23;99709.78;;;5.70;100.00
53868;BME280;41577;47.470;19.080;2023-11-21T00:17:35;99725.50;;;5.71;100.00
53868;BME280;41577;47.470;19.080;2023-11-21T00:17:47;99721.84;;;5.72;100.00
53868;BME280;41577;47.470;19.080;2023-11-21T00:17:59;99714.75;;;5.73;100.00
53868;BME280;41577;47.470;19.080;2023-11-21T00:18:11;99726.16;;;5.73;100.00
53868;BME280;41577;47.470;19.080;2023-11-21T00:18:23;99718.38;;;5.72;100.00
53868;BME280;41577;47.470;19.080;2023-11-21T00:18:35;99719.03;;;5.74;100.00
53868;BME280;41577;47.470;19.080;2023-11-21T00:18:47;99716.56;;;5.72;100.00
53868;BME280;41577;47.470;19.080;2023-11-21T00:18:58;99712.94;;;5.73;100.00
53868;BME280;41577;47.470;19.080;2023-11-21T00:19:11;99711.25;;;5.72;100.00
53868;BME280;41577;47.470;19.080;2023-11-21T00:19:22;99718.38;;;5.72;100.00
53868;BME280;41577;47.470;19.080;2023-11-21T00:19:35;99716.56;;;5.72;100.00
53868;BME280;41577;47.470;19.080;2023-11-21T00:19:47;99717.41;;;5.73;100.00
53868;BME280;41577;47.470;19.080;2023-11-21T00:19:59;99714.75;;;5.73;100.00
53868;BME280;41577;47.470;19.080;2023-11-21T00:20:11;99720.06;;;5.73;100.00
53868;BME280;41577;47.470;19.080;2023-11-21T00:20:23;99714.75;;;5.73;100.00
53868;BME280;41577;47.470;19.080;2023-11-21T00:20:34;99720.72;;;5.75;100.00
53868;BME280;41577;47.470;19.080;2023-11-21T00:20:46;99721.69;;;5.74;100.00
53868;BME280;41577;47.470;19.080;2023-11-21T00:20:58;99720.06;;;5.73;100.00
53868;BME280;41577;47.470;19.080;2023-11-21T00:21:10;99725.34;;;5.73;100.00
53868;BME280;41577;47.470;19.080;2023-11-21T00:21:22;99734.94;;;5.74;100.00
53868;BME280;41577;47.470;19.080;2023-11-21T00:21:34;99722.50;;;5.74;100.00
53868;BME280;41577;47.470;19.080;2023-11-21T00:21:46;99723.38;;;5.75;100.00
53868;BME280;41577;47.470;19.080;2023-11-21T00:21:57;99724.34;;;5.74;100.00
53868;BME280;41577;47.470;19.080;2023-11-21T00:22:09;99729.47;;;5.75;100.00
53868;BME280;41577;47.470;19.080;2023-11-21T00:22:21;99731.47;;;5.73;100.00
53868;BME280;41577;47.470;19.080;2023-11-21T00:22:34;99728.66;;;5.75;100.00
53868;BME280;41577;47.470;19.080;2023-11-21T00:22:46;99734.94;;;5.74;100.00
53868;BME280;41577;47.470;19.080;2023-11-21T00:22:58;99734.13;;;5.73;100.00
53868;BME280;41577;47.470;19.080;2023-11-21T00:23:10;99729.63;;;5.74;100.00
53868;BME280;41577;47.470;19.080;2023-11-21T00:23:21;99731.47;;;5.73;100.00
53868;BME280;41577;47.470;19.080;2023-11-21T00:23:33;99735.94;;;5.73;100.00
53868;BME280;41577;47.470;19.080;2023-11-21T00:23:45;99732.44;;;5.72;100.00
53868;BME280;41577;47.470;19.080;2023-11-21T00:23:57;99734.28;;;5.72;100.00
53868;BME280;41577;47.470;19.080;2023-11-21T00:24:09;99730.81;;;5.71;100.00
53868;BME280;41577;47.470;19.080;2023-11-21T00:24:21;99733.47;;;5.71;100.00
53868;BME280;41577;47.470;19.080;2023-11-21T00:24:32;99733.63;;;5.70;100.00
53868;BME280;41577;47.470;19.080;2023-11-21T00:24:44;99727.50;;;5.69;100.00
53868;BME280;41577;47.470;19.080;2023-11-21T00:24:56;99734.44;;;5.70;100.00
53868;BME280;41577;47.470;19.080;2023-11-21T00:25:08;99732.97;;;5.68;100.00
53868;BME280;41577;47.470;19.080;2023-11-21T00:25:20;99733.81;;;5.68;100.00
53868;BME280;41577;47.470;19.080;2023-11-21T00:25:32;99737.28;;;5.69;100.00
53868;BME280;41577;47.470;19.080;2023-11-21T00:25:44;99732.97;;;5.68;100.00
53868;BME280;41577;47.470;19.080;2023-11-21T00:25:56;99725.00;;;5.68;100.00
53868;BME280;41577;47.470;19.080;2023-11-21T00:26:08;99728.69;;;5.66;100.00
53868;BME280;41577;47.470;19.080;2023-11-21T00:26:20;99733.97;;;5.66;100.00
53868;BME280;41577;47.470;19.080;2023-11-21T00:26:41;99727.84;;;5.66;100.00
53868;BME280;41577;47.470;19.080;2023-11-21T00:26:54;99733.31;;;5.64;100.00
53868;BME280;41577;47.470;19.080;2023-11-21T00:27:06;99729.84;;;5.64;100.00
53868;BME280;41577;47.470;19.080;2023-11-21T00:27:18;99731.69;;;5.63;100.00
53868;BME280;41577;47.470;19.080;2023-11-21T00:27:30;99727.34;;;5.62;100.00
53868;BME280;41577;47.470;19.080;2023-11-21T00:27:42;99731.03;;;5.61;100.00
53868;BME280;41577;47.470;19.080;2023-11-21T00:27:53;99732.00;;;5.60;100.00
53868;BME280;41577;47.470;19.080;2023-11-21T00:28:07;99729.34;;;5.60;100.00
53868;BME280;41577;47.470;19.080;2023-11-21T00:28:18;99729.34;;;5.60;100.00
53868;BME280;41577;47.470;19.080;2023-11-21T00:28:30;99727.72;;;5.59;100.00
53868;BME280;41577;47.470;19.080;2023-11-21T00:28:42;99725.22;;;5.58;100.00
53868;BME280;41577;47.470;19.080;2023-11-21T00:28:54;99727.88;;;5.58;100.00
53868;BME280;41577;47.470;19.080;2023-11-21T00:29:06;99724.41;;;5.57;100.00
53868;BME280;41577;47.470;19.080;2023-11-21T00:29:18;99729.69;;;5.57;100.00
53868;BME280;41577;47.470;19.080;2023-11-21T00:29:29;99729.69;;;5.57;100.00
53868;BME280;41577;47.470;19.080;2023-11-21T00:29:41;99723.75;;;5.55;100.00
53868;BME280;41577;47.470;19.080;2023-11-21T00:29:53;99730.88;;;5.55;100.00
53868;BME280;41577;47.470;19.080;2023-11-21T00:30:06;99733.53;;;5.55;100.00
53868;BME280;41577;47.470;19.080;2023-11-21T00:30:18;99730.06;;;5.54;100.00
53868;BME280;41577;47.470;19.080;2023-11-21T00:30:30;99727.56;;;5.53;100.00
53868;BME280;41577;47.470;19.080;2023-11-21T00:30:42;99737.16;;;5.54;100.00
53868;BME280;41577;47.470;19.080;2023-11-21T00:30:54;99730.22;;;5.53;100.00
53868;BME280;41577;47.470;19.080;2023-11-21T00:31:06;99731.19;;;5.52;100.00
53868;BME280;41577;47.470;19.080;2023-11-21T00:31:18;99730.38;;;5.51;100.00
53868;BME280;41577;47.470;19.080;2023-11-21T00:31:30;99739.97;;;5.52;100.00
53868;BME280;41577;47.470;19.080;2023-11-21T00:31:41;99734.03;;;5.50;100.00
53868;BME280;41577;47.470;19.080;2023-11-21T00:31:54;99732.19;;;5.51;100.00
53868;BME280;41577;47.470;19.080;2023-11-21T00:32:06;99737.50;;;5.51;100.00
53868;BME280;41577;47.470;19.080;2023-11-21T00:32:18;99731.38;;;5.50;100.00
53868;BME280;41577;47.470;19.080;2023-11-21T00:32:29;99738.50;;;5.50;100.00
53868;BME280;41577;47.470;19.080;2023-11-21T00:32:42;99730.72;;;5.48;100.00
53868;BME280;41577;47.470;19.080;2023-11-21T00:32:54;99729.91;;;5.48;100.00
53868;BME280;41577;47.470;19.080;2023-11-21T00:33:07;99731.69;;;5.47;100.00
53868;BME280;41577;47.470;19.080;2023-11-21T00:33:19;99733.38;;;5.48;100.00
53868;BME280;41577;47.470;19.080;2023-11-21T00:33:31;99734.34;;;5.47;100.00
53868;BME280;41577;47.470;19.080;2023-11-21T00:33:43;99732.72;;;5.46;100.00
53868;BME280;41577;47.470;19.080;2023-11-21T00:33:56;99729.25;;;5.45;100.00
53868;BME280;41577;47.470;19.080;2023-11-21T00:34:08;99730.88;;;5.47;100.00
53868;BME280;41577;47.470;19.080;2023-11-21T00:34:20;99738.00;;;5.46;100.00
53868;BME280;41577;47.470;19.080;2023-11-21T00:34:32;99742.47;;;5.45;100.00
53868;BME280;41577;47.470;19.080;2023-11-21T00:34:45;99728.56;;;5.43;100.00
53868;BME280;41577;47.470;19.080;2023-11-21T00:34:56;99737.19;;;5.45;100.00
53868;BME280;41577;47.470;19.080;2023-11-21T00:35:08;99737.19;;;5.45;100.00
53868;BME280;41577;47.470;19.080;2023-11-21T00:35:20;99749.56;;;5.45;100.00
53868;BME280;41577;47.470;19.080;2023-11-21T00:35:32;99742.63;;;5.44;100.00
53868;BME280;41577;47.470;19.080;2023-11-21T00:35:44;99746.94;;;5.45;100.00
53868;BME280;41577;47.470;19.080;2023-11-21T00:35:56;99745.13;;;5.45;100.00
53868;BME280;41577;47.470;19.080;2023-11-21T00:36:09;99743.47;;;5.44;100.00
53868;BME280;41577;47.470;19.080;2023-11-21T00:36:20;99739.84;;;5.45;100.00
53868;BME280;41577;47.470;19.080;2023-11-21T00:36:32;99745.94;;;5.46;100.00
53868;BME280;41577;47.470;19.080;2023-11-21T00:36:47;99746.09;;;5.44;100.00
53868;BME280;41577;47.470;19.080;2023-11-21T00:36:59;99749.56;;;5.45;100.00
53868;BME280;41577;47.470;19.080;2023-11-21T00:37:11;99745.28;;;5.44;100.00
53868;BME280;41577;47.470;19.080;2023-11-21T00:37:23;99754.88;;;5.45;100.00
53868;BME280;41577;47.470;19.080;2023-11-21T00:37:34;99749.56;;;5.45;100.00
53868;BME280;41577;47.470;19.080;2023-11-21T00:37:46;99744.28;;;5.45;100.00
53868;BME280;41577;47.470;19.080;2023-11-21T00:37:58;99747.94;;;5.44;100.00
53868;BME280;41577;47.470;19.080;2023-11-21T00:38:10;99745.28;;;5.44;100.00
53868;BME280;41577;47.470;19.080;2023-11-21T00:38:22;99747.13;;;5.43;100.00
53868;BME280;41577;47.470;19.080;2023-11-21T00:38:34;99744.28;;;5.45;100.00
53868;BME280;41577;47.470;19.080;2023-11-21T00:38:45;99747.94;;;5.44;100.00
53868;BME280;41577;47.470;19.080;2023-11-21T00:38:58;99745.28;;;5.44;100.00
53868;BME280;41577;47.470;19.080;2023-11-21T00:39:10;99747.94;;;5.44;100.00
53868;BME280;41577;47.470;19.080;2023-11-21T00:39:22;99749.75;;;5.43;100.00
53868;BME280;41577;47.470;19.080;2023-11-21T00:39:34;99750.59;;;5.44;100.00
53868;BME280;41577;47.470;19.080;2023-11-21T00:39:45;99742.47;;;5.45;100.00
53868;BME280;41577;47.470;19.080;2023-11-21T00:39:57;99746.94;;;5.45;100.00
53868;BME280;41577;47.470;19.080;2023-11-21T00:40:10;99744.28;;;5.45;100.00
53868;BME280;41577;47.470;19.080;2023-11-21T00:40:22;99746.09;;;5.44;100.00
53868;BME280;41577;47.470;19.080;2023-11-21T00:40:34;99745.94;;;5.46;100.00
53868;BME280;41577;47.470;19.080;2023-11-21T00:40:46;99745.13;;;5.45;100.00
53868;BME280;41577;47.470;19.080;2023-11-21T00:40:58;99751.25;;;5.46;100.00
53868;BME280;41577;47.470;19.080;2023-11-21T00:41:10;99750.44;;;5.45;100.00
53868;BME280;41577;47.470;19.080;2023-11-21T00:41:22;99745.13;;;5.45;100.00
53868;BME280;41577;47.470;19.080;2023-11-21T00:41:34;99744.28;;;5.45;100.00
53868;BME280;41577;47.470;19.080;2023-11-21T00:41:46;99751.25;;;5.46;100.00
53868;BME280;41577;47.470;19.080;2023-11-21T00:41:59;99745.94;;;5.46;100.00
53868;BME280;41577;47.470;19.080;2023-11-21T00:42:11;99745.78;;;5.48;100.00
53868;BME280;41577;47.470;19.080;2023-11-21T00:42:23;99752.06;;;5.47;100.00
53868;BME280;41577;47.470;19.080;2023-11-21T00:42:35;99752.88;;;5.47;100.00
53868;BME280;41577;47.470;19.080;2023-11-21T00:42:47;99747.59;;;5.47;100.00
53868;BME280;41577;47.470;19.080;2023-11-21T00:42:59;99748.44;;;5.48;100.00
53868;BME280;41577;47.470;19.080;2023-11-21T00:43:12;99744.13;;;5.47;100.00
53868;BME280;41577;47.470;19.080;2023-11-21T00:43:24;99751.09;;;5.48;100.00
53868;BME280;41577;47.470;19.080;2023-11-21T00:43:36;99743.97;;;5.48;100.00
53868;BME280;41577;47.470;19.080;2023-11-21T00:43:48;99754.56;;;5.48;100.00
53868;BME280;41577;47.470;19.080;2023-11-21T00:44:00;99747.59;;;5.47;100.00
53868;BME280;41577;47.470;19.080;2023-11-21T00:44:12;99747.59;;;5.47;100.00
53868;BME280;41577;47.470;19.080;2023-11-21T00:44:24;99748.44;;;5.48;100.00
53868;BME280;41577;47.470;19.080;2023-11-21T00:44:37;99743.97;;;5.48;100.00
53868;BME280;41577;47.470;19.080;2023-11-21T00:44:49;99753.72;;;5.48;100.00
53868;BME280;41577;47.470;19.080;2023-11-21T00:45:01;99750.22;;;5.47;100.00
53868;BME280;41577;47.470;19.080;2023-11-21T00:45:13;99753.53;;;5.49;100.00
53868;BME280;41577;47.470;19.080;2023-11-21T00:45:25;99751.09;;;5.48;100.00
53868;BME280;41577;47.470;19.080;2023-11-21T00:45:37;99748.44;;;5.48;100.00
53868;BME280;41577;47.470;19.080;2023-11-21T00:45:49;99754.56;;;5.48;100.00
53868;BME280;41577;47.470;19.080;2023-11-21T00:46:04;99749.09;;;5.50;100.00
53868;BME280;41577;47.470;19.080;2023-11-21T00:46:16;99754.56;;;5.48;100.00
53868;BME280;41577;47.470;19.080;2023-11-21T00:46:28;99750.06;;;5.49;100.00
53868;BME280;41577;47.470;19.080;2023-11-21T00:46:42;99748.44;;;5.48;100.00
53868;BME280;41577;47.470;19.080;2023-11-21T00:46:54;99748.44;;;5.48;100.00
53868;BME280;41577;47.470;19.080;2023-11-21T00:47:06;99755.22;;;5.50;100.00
53868;BME280;41577;47.470;19.080;2023-11-21T00:47:18;99749.25;;;5.48;100.00
53868;BME280;41577;47.470;19.080;2023-11-21T00:47:30;99754.41;;;5.50;100.00
53868;BME280;41577;47.470;19.080;2023-11-21T00:47:42;99747.28;;;5.50;100.00
53868;BME280;41577;47.470;19.080;2023-11-21T00:47:54;99748.44;;;5.48;100.00
53868;BME280;41577;47.470;19.080;2023-11-21T00:48:06;99744.78;;;5.49;100.00
53868;BME280;41577;47.470;19.080;2023-11-21T00:48:18;99745.94;;;5.46;100.00
53868;BME280;41577;47.470;19.080;2023-11-21T00:48:30;99749.25;;;5.48;100.00
53868;BME280;41577;47.470;19.080;2023-11-21T00:48:42;99751.75;;;5.50;100.00
53868;BME280;41577;47.470;19.080;2023-11-21T00:48:53;99748.25;;;5.49;100.00
53868;BME280;41577;47.470;19.080;2023-11-21T00:49:05;99757.19;;;5.48;100.00
53868;BME280;41577;47.470;19.080;2023-11-21T00:49:18;99750.06;;;5.49;100.00
53868;BME280;41577;47.470;19.080;2023-11-21T00:49:30;99751.09;;;5.48;100.00
53868;BME280;41577;47.470;19.080;2023-11-21T00:49:42;99750.22;;;5.47;100.00
53868;BME280;41577;47.470;19.080;2023-11-21T00:49:53;99751.91;;;5.48;100.00
53868;BME280;41577;47.470;19.080;2023-11-21T00:50:06;99748.25;;;5.49;100.00
53868;BME280;41577;47.470;19.080;2023-11-21T00:50:18;99753.72;;;5.48;100.00
53868;BME280;41577;47.470;19.080;2023-11-21T00:50:30;99747.59;;;5.47;100.00
53868;BME280;41577;47.470;19.080;2023-11-21T00:50:42;99754.56;;;5.48;100.00
53868;BME280;41577;47.470;19.080;2023-11-21T00:50:54;99746.75;;;5.47;100.00
53868;BME280;41577;47.470;19.080;2023-11-21T00:51:06;99746.59;;;5.48;100.00
53868;BME280;41577;47.470;19.080;2023-11-21T00:51:18;99749.25;;;5.48;100.00
53868;BME280;41577;47.470;19.080;2023-11-21T00:51:30;99751.91;;;5.48;100.00
53868;BME280;41577;47.470;19.080;2023-11-21T00:51:42;99745.78;;;5.48;100.00
53868;BME280;41577;47.470;19.080;2023-11-21T00:51:53;99749.41;;;5.47;100.00
53868;BME280;41577;47.470;19.080;2023-11-21T00:52:06;99748.59;;;5.46;100.00
53868;BME280;41577;47.470;19.080;2023-11-21T00:52:18;99747.78;;;5.45;100.00
53868;BME280;41577;47.470;19.080;2023-11-21T00:52:30;99746.94;;;5.45;100.00
53868;BME280;41577;47.470;19.080;2023-11-21T00:52:42;99748.59;;;5.46;100.00
53868;BME280;41577;47.470;19.080;2023-11-21T00:52:54;99741.47;;;5.47;100.00
53868;BME280;41577;47.470;19.080;2023-11-21T00:53:06;99744.28;;;5.45;100.00
53868;BME280;41577;47.470;19.080;2023-11-21T00:53:19;99749.56;;;5.45;100.00
53868;BME280;41577;47.470;19.080;2023-11-21T00:53:31;99758.38;;;5.45;100.00
53868;BME280;41577;47.470;19.080;2023-11-21T00:53:43;99750.59;;;5.44;100.00
53868;BME280;41577;47.470;19.080;2023-11-21T00:53:56;99755.72;;;5.45;100.00
53868;BME280;41577;47.470;19.080;2023-11-21T00:54:07;99754.06;;;5.44;100.00
53868;BME280;41577;47.470;19.080;2023-11-21T00:54:19;99749.75;;;5.43;100.00
53868;BME280;41577;47.470;19.080;2023-11-21T00:54:31;99756.69;;;5.44;100.00
53868;BME280;41577;47.470;19.080;2023-11-21T00:54:46;99753.22;;;5.44;100.00
53868;BME280;41577;47.470;19.080;2023-11-21T00:54:57;99755.06;;;5.43;100.00
53868;BME280;41577;47.470;19.080;2023-11-21T00:55:09;99748.09;;;5.42;100.00
53868;BME280;41577;47.470;19.080;2023-11-21T00:55:21;99748.94;;;5.43;100.00
53868;BME280;41577;47.470;19.080;2023-11-21T00:55:33;99754.25;;;5.43;100.00
53868;BME280;41577;47.470;19.080;2023-11-21T00:55:45;99749.91;;;5.42;100.00
53868;BME280;41577;47.470;19.080;2023-11-21T00:55:57;99756.88;;;5.43;100.00
53868;BME280;41577;47.470;19.080;2023-11-21T00:56:09;99748.09;;;5.42;100.00
53868;BME280;41577;47.470;19.080;2023-11-21T00:56:21;99754.41;;;5.41;100.00
53868;BME280;41577;47.470;19.080;2023-11-21T00:56:33;99754.25;;;5.43;100.00
53868;BME280;41577;47.470;19.080;2023-11-21T00:56:45;99750.75;;;5.42;100.00
53868;BME280;41577;47.470;19.080;2023-11-21T00:56:56;99752.56;;;5.42;100.00
53868;BME280;41577;47.470;19.080;2023-11-21T00:57:10;99749.09;;;5.41;100.00
53868;BME280;41577;47.470;19.080;2023-11-21T00:57:21;99749.25;;;5.40;100.00
53868;BME280;41577;47.470;19.080;2023-11-21T00:57:33;99750.94;;;5.41;100.00
53868;BME280;41577;47.470;19.080;2023-11-21T00:57:45;99753.56;;;5.41;100.00
53868;BME280;41577;47.470;19.080;2023-11-21T00:57:57;99749.25;;;5.40;100.00
53868;BME280;41577;47.470;19.080;2023-11-21T00:58:09;99754.56;;;5.40;100.00
53868;BME280;41577;47.470;19.080;2023-11-21T00:58:21;99751.09;;;5.39;100.00
53868;BME280;41577;47.470;19.080;2023-11-21T00:58:33;99752.91;;;5.39;100.00
53868;BME280;41577;47.470;19.080;2023-11-21T00:58:45;99752.91;;;5.39;100.00
53868;BME280;41577;47.470;19.080;2023-11-21T00:58:57;99754.75;;;5.38;100.00
53868;BME280;41577;47.470;19.080;2023-11-21T00:59:09;99753.06;;;5.37;100.00
53868;BME280;41577;47.470;19.080;2023-11-21T00:59:21;99752.09;;;5.38;100.00
53868;BME280;41577;47.470;19.080;2023-11-21T00:59:33;99752.25;;;5.37;100.00
53868;BME280;41577;47.470;19.080;2023-11-21T00:59:45;99755.72;;;5.37;100.00
53868;BME280;41577;47.470;19.080;2023-11-21T00:59:57;99759.38;;;5.36;100.00
53868;BME280;41577;47.470;19.080;2023-11-21T01:00:10;99757.38;;;5.38;100.00
53868;BME280;41577;47.470;19.080;2023-11-21T01:00:22;99755.88;;;5.36;100.00
53868;BME280;41577;47.470;19.080;2023-11-21T01:00:34;99753.06;;;5.37;100.00
53868;BME280;41577;47.470;19.080;2023-11-21T01:00:45;99757.56;;;5.37;100.00
53868;BME280;41577;47.470;19.080;2023-11-21T01:00:57;99754.91;;;5.37;100.00
53868;BME280;41577;47.470;19.080;2023-11-21T01:01:09;99755.88;;;5.36;100.00
53868;BME280;41577;47.470;19.080;2023-11-21T01:01:22;99754.91;;;5.37;100.00
53868;BME280;41577;47.470;19.080;2023-11-21T01:01:34;99759.38;;;5.36;100.00
53868;BME280;41577;47.470;19.080;2023-11-21T01:01:46;99756.72;;;5.36;100.00
53868;BME280;41577;47.470;19.080;2023-11-21T01:01:57;99756.72;;;5.36;100.00
53868;BME280;41577;47.470;19.080;2023-11-21T01:02:09;99761.00;;;5.37;100.00
53868;BME280;41577;47.470;19.080;2023-11-21T01:02:21;99758.38;;;5.37;100.00
53868;BME280;41577;47.470;19.080;2023-11-21T01:02:33;99757.56;;;5.37;100.00
53868;BME280;41577;47.470;19.080;2023-11-21T01:02:45;99754.91;;;5.37;100.00
53868;BME280;41577;47.470;19.080;2023-11-21T01:02:58;99762.84;;;5.37;100.00
53868;BME280;41577;47.470;19.080;2023-11-21T01:03:10;99757.56;;;5.37;100.00